sensor_id;sensor_type;location;lat;lon;timestamp;temperature;humidity
28297;DHT22;62078;49.366;8.172;2023-02-23T04:18:51;17.60;56.00
28297;DHT22;62078;49.366;8.172;2023-02-23T04:21:17;17.40;57.60
28297;DHT22;62078;49.366;8.172;2023-02-23T04:23:43;17.40;58.00
28297;DHT22;62078;49.366;8.172;2023-02-23T04:26:09;17.40;57.90
28297;DHT22;62078;49.366;8.172;2023-02-23T04:28:34;17.40;57.90
28297;DHT22;62078;49.366;8.172;2023-02-23T04:31:00;17.40;58.00
28297;DHT22;62078;49.366;8.172;2023-02-23T04:33:26;17.40;58.20
28297;DHT22;62078;49.366;8.172;2023-02-23T04:35:53;17.40;58.00
28297;DHT22;62078;49.366;8.172;2023-02-23T04:38:19;17.40;57.80
28297;DHT22;62078;49.366;8.172;2023-02-23T04:40:45;17.40;58.10
28297;DHT22;62078;49.366;8.172;2023-02-23T04:43:11;17.50;57.90
28297;DHT22;62078;49.366;8.172;2023-02-23T04:45:37;17.50;58.10
28297;DHT22;62078;49.366;8.172;2023-02-23T04:48:03;17.50;58.40
28297;DHT22;62078;49.366;8.172;2023-02-23T04:50:29;17.50;58.80
28297;DHT22;62078;49.366;8.172;2023-02-23T04:52:55;17.50;58.80
28297;DHT22;62078;49.366;8.172;2023-02-23T04:55:23;17.50;58.70
28297;DHT22;62078;49.366;8.172;2023-02-23T04:57:49;17.50;58.80
28297;DHT22;62078;49.366;8.172;2023-02-23T05:00:16;17.60;58.80
28297;DHT22;62078;49.366;8.172;2023-02-23T05:02:42;17.50;58.20
28297;DHT22;62078;49.366;8.172;2023-02-23T05:05:08;17.60;58.00
28297;DHT22;62078;49.366;8.172;2023-02-23T05:07:35;17.60;58.00
28297;DHT22;62078;49.366;8.172;2023-02-23T05:10:01;17.70;58.00
28297;DHT22;62078;49.366;8.172;2023-02-23T05:12:26;17.60;57.90
28297;DHT22;62078;49.366;8.172;2023-02-23T05:14:52;17.60;58.00
28297;DHT22;62078;49.366;8.172;2023-02-23T05:17:18;17.70;58.10
28297;DHT22;62078;49.366;8.172;2023-02-23T05:19:43;17.70;57.80
28297;DHT22;62078;49.366;8.172;2023-02-23T05:22:09;17.80;58.10
28297;DHT22;62078;49.366;8.172;2023-02-23T05:24:38;17.80;58.00
28297;DHT22;62078;49.366;8.172;2023-02-23T05:27:05;17.80;58.10
28297;DHT22;62078;49.366;8.172;2023-02-23T05:29:31;17.80;58.10
28297;DHT22;62078;49.366;8.172;2023-02-23T05:31:56;17.80;58.00
28297;DHT22;62078;49.366;8.172;2023-02-23T05:34:22;17.80;58.10
28297;DHT22;62078;49.366;8.172;2023-02-23T05:36:48;17.80;57.90
28297;DHT22;62078;49.366;8.172;2023-02-23T05:39:14;17.80;58.00
28297;DHT22;62078;49.366;8.172;2023-02-23T05:41:39;17.80;57.90
28297;DHT22;62078;49.366;8.172;2023-02-23T05:44:05;17.80;57.90
28297;DHT22;62078;49.366;8.172;2023-02-23T05:46:31;17.80;57.90
28297;DHT22;62078;49.366;8.172;2023-02-23T05:48:59;17.80;57.90
28297;DHT22;62078;49.366;8.172;2023-02-23T05:51:26;17.80;57.90
28297;DHT22;62078;49.366;8.172;2023-02-23T05:53:52;17.80;57.90
28297;DHT22;62078;49.366;8.172;2023-02-23T05:56:18;17.80;57.90
28297;DHT22;62078;49.366;8.172;2023-02-23T05:58:51;17.80;57.90
28297;DHT22;62078;49.366;8.172;2023-02-23T06:01:18;17.80;57.90
28297;DHT22;62078;49.366;8.172;2023-02-23T06:03:45;17.80;57.90
28297;DHT22;62078;49.366;8.172;2023-02-23T06:06:11;17.80;57.90
28297;DHT22;62078;49.366;8.172;2023-02-23T06:08:37;17.80;57.90
28297;DHT22;62078;49.366;8.172;2023-02-23T06:11:03;17.80;57.80
28297;DHT22;62078;49.366;8.172;2023-02-23T06:13:29;17.80;57.80
28297;DHT22;62078;49.366;8.172;2023-02-23T06:15:56;17.80;57.80
28297;DHT22;62078;49.366;8.172;2023-02-23T06:18:23;17.80;57.80
28297;DHT22;62078;49.366;8.172;2023-02-23T06:20:48;17.80;57.80
28297;DHT22;62078;49.366;8.172;2023-02-23T06:23:14;17.70;57.70
28297;DHT22;62078;49.366;8.172;2023-02-23T06:25:41;17.80;57.80
28297;DHT22;62078;49.366;8.172;2023-02-23T06:28:07;17.70;57.80
28297;DHT22;62078;49.366;8.172;2023-02-23T06:30:34;17.70;57.70
28297;DHT22;62078;49.366;8.172;2023-02-23T06:33:00;17.70;57.80
28297;DHT22;62078;49.366;8.172;2023-02-23T06:35:26;17.70;57.70
28297;DHT22;62078;49.366;8.172;2023-02-23T06:37:53;17.70;57.80
28297;DHT22;62078;49.366;8.172;2023-02-23T06:40:19;17.70;57.70
28297;DHT22;62078;49.366;8.172;2023-02-23T06:42:45;17.80;57.80
28297;DHT22;62078;49.366;8.172;2023-02-23T06:45:11;17.70;58.40
28297;DHT22;62078;49.366;8.172;2023-02-23T06:47:38;17.70;58.40
28297;DHT22;62078;49.366;8.172;2023-02-23T06:50:05;17.70;58.30
28297;DHT22;62078;49.366;8.172;2023-02-23T06:52:31;17.70;58.40
28297;DHT22;62078;49.366;8.172;2023-02-23T06:54:57;17.70;58.30
28297;DHT22;62078;49.366;8.172;2023-02-23T06:57:23;17.70;58.40
28297;DHT22;62078;49.366;8.172;2023-02-23T06:59:49;17.70;58.30
28297;DHT22;62078;49.366;8.172;2023-02-23T07:02:14;17.70;58.30
28297;DHT22;62078;49.366;8.172;2023-02-23T07:04:40;17.70;58.00
28297;DHT22;62078;49.366;8.172;2023-02-23T07:07:06;17.70;58.00
28297;DHT22;62078;49.366;8.172;2023-02-23T07:09:32;17.70;58.00
28297;DHT22;62078;49.366;8.172;2023-02-23T07:11:58;17.70;58.10
28297;DHT22;62078;49.366;8.172;2023-02-23T07:14:24;17.70;58.00
28297;DHT22;62078;49.366;8.172;2023-02-23T07:16:50;17.70;58.40
28297;DHT22;62078;49.366;8.172;2023-02-23T07:19:15;17.70;58.00
28297;DHT22;62078;49.366;8.172;2023-02-23T07:21:41;17.70;58.00
28297;DHT22;62078;49.366;8.172;2023-02-23T07:24:07;17.70;58.10
28297;DHT22;62078;49.366;8.172;2023-02-23T07:26:33;17.70;57.90
28297;DHT22;62078;49.366;8.172;2023-02-23T07:29:00;17.70;58.00
28297;DHT22;62078;49.366;8.172;2023-02-23T07:31:26;17.80;57.60
28297;DHT22;62078;49.366;8.172;2023-02-23T07:33:52;17.90;57.90
28297;DHT22;62078;49.366;8.172;2023-02-23T07:36:20;18.00;58.10
28297;DHT22;62078;49.366;8.172;2023-02-23T07:38:46;18.00;57.60
28297;DHT22;62078;49.366;8.172;2023-02-23T07:41:11;18.00;57.40
28297;DHT22;62078;49.366;8.172;2023-02-23T07:43:37;18.00;57.50
28297;DHT22;62078;49.366;8.172;2023-02-23T07:46:03;18.00;57.50
28297;DHT22;62078;49.366;8.172;2023-02-23T07:48:29;18.00;57.50
28297;DHT22;62078;49.366;8.172;2023-02-23T07:50:55;18.00;57.50
28297;DHT22;62078;49.366;8.172;2023-02-23T07:53:20;18.00;57.40
28297;DHT22;62078;49.366;8.172;2023-02-23T07:55:57;18.00;57.40
28297;DHT22;62078;49.366;8.172;2023-02-23T07:58:23;18.00;57.20
28297;DHT22;62078;49.366;8.172;2023-02-23T08:00:48;18.10;57.30
28297;DHT22;62078;49.366;8.172;2023-02-23T08:03:14;18.20;56.90
28297;DHT22;62078;49.366;8.172;2023-02-23T08:05:40;18.30;56.70
28297;DHT22;62078;49.366;8.172;2023-02-23T08:08:06;18.60;56.30
28297;DHT22;62078;49.366;8.172;2023-02-23T08:10:31;19.40;54.80
28297;DHT22;62078;49.366;8.172;2023-02-23T08:12:57;20.20;52.70
28297;DHT22;62078;49.366;8.172;2023-02-23T08:15:24;21.00;50.70
28297;DHT22;62078;49.366;8.172;2023-02-23T08:17:50;21.50;49.00
28297;DHT22;62078;49.366;8.172;2023-02-23T08:20:15;21.90;48.30
28297;DHT22;62078;49.366;8.172;2023-02-23T08:22:41;21.60;48.50
28297;DHT22;62078;49.366;8.172;2023-02-23T08:25:08;21.50;48.50
28297;DHT22;62078;49.366;8.172;2023-02-23T08:27:37;21.50;48.20
28297;DHT22;62078;49.366;8.172;2023-02-23T08:30:04;21.20;49.20
28297;DHT22;62078;49.366;8.172;2023-02-23T08:32:33;21.30;49.00
28297;DHT22;62078;49.366;8.172;2023-02-23T08:35:00;21.30;49.10
28297;DHT22;62078;49.366;8.172;2023-02-23T08:37:27;21.10;49.20
28297;DHT22;62078;49.366;8.172;2023-02-23T08:39:54;21.30;49.20
28297;DHT22;62078;49.366;8.172;2023-02-23T08:42:19;21.50;48.50
28297;DHT22;62078;49.366;8.172;2023-02-23T08:44:45;21.60;48.00
28297;DHT22;62078;49.366;8.172;2023-02-23T08:47:14;21.40;48.70
28297;DHT22;62078;49.366;8.172;2023-02-23T08:49:41;20.90;49.80
28297;DHT22;62078;49.366;8.172;2023-02-23T08:52:06;20.50;50.80
28297;DHT22;62078;49.366;8.172;2023-02-23T08:54:32;20.20;52.40
28297;DHT22;62078;49.366;8.172;2023-02-23T08:56:58;19.90;52.70
28297;DHT22;62078;49.366;8.172;2023-02-23T08:59:24;19.60;53.30
28297;DHT22;62078;49.366;8.172;2023-02-23T09:01:50;19.50;53.80
28297;DHT22;62078;49.366;8.172;2023-02-23T09:04:16;19.40;54.30
28297;DHT22;62078;49.366;8.172;2023-02-23T09:06:43;19.20;54.60
28297;DHT22;62078;49.366;8.172;2023-02-23T09:09:09;19.20;55.00
28297;DHT22;62078;49.366;8.172;2023-02-23T09:11:34;19.10;55.20
28297;DHT22;62078;49.366;8.172;2023-02-23T09:14:00;19.00;55.40
28297;DHT22;62078;49.366;8.172;2023-02-23T09:16:26;19.00;55.50
28297;DHT22;62078;49.366;8.172;2023-02-23T09:18:52;19.00;55.80
28297;DHT22;62078;49.366;8.172;2023-02-23T09:21:19;18.90;55.80
28297;DHT22;62078;49.366;8.172;2023-02-23T09:23:47;18.90;56.00
28297;DHT22;62078;49.366;8.172;2023-02-23T09:26:15;18.80;56.10
28297;DHT22;62078;49.366;8.172;2023-02-23T09:28:43;18.80;56.10
28297;DHT22;62078;49.366;8.172;2023-02-23T09:31:11;18.80;56.20
28297;DHT22;62078;49.366;8.172;2023-02-23T09:33:38;18.80;56.30
28297;DHT22;62078;49.366;8.172;2023-02-23T09:36:17;18.80;56.30
28297;DHT22;62078;49.366;8.172;2023-02-23T09:38:45;18.70;56.40
28297;DHT22;62078;49.366;8.172;2023-02-23T09:44:15;18.70;56.50
28297;DHT22;62078;49.366;8.172;2023-02-23T09:47:03;18.70;56.60
28297;DHT22;62078;49.366;8.172;2023-02-23T09:49:34;18.70;56.50
28297;DHT22;62078;49.366;8.172;2023-02-23T09:52:03;18.70;56.40
28297;DHT22;62078;49.366;8.172;2023-02-23T09:54:33;18.70;56.40
28297;DHT22;62078;49.366;8.172;2023-02-23T09:57:02;18.70;56.60
28297;DHT22;62078;49.366;8.172;2023-02-23T09:59:29;18.70;56.60
28297;DHT22;62078;49.366;8.172;2023-02-23T10:02:14;18.60;56.40
28297;DHT22;62078;49.366;8.172;2023-02-23T10:04:53;18.60;57.10
28297;DHT22;62078;49.366;8.172;2023-02-23T10:07:36;18.60;56.40
28297;DHT22;62078;49.366;8.172;2023-02-23T10:10:27;18.60;56.60
28297;DHT22;62078;49.366;8.172;2023-02-23T10:18:33;18.60;56.70
28297;DHT22;62078;49.366;8.172;2023-02-23T10:21:17;18.60;56.60
28297;DHT22;62078;49.366;8.172;2023-02-23T10:26:50;18.60;56.90
28297;DHT22;62078;49.366;8.172;2023-02-23T10:29:31;18.50;56.90
28297;DHT22;62078;49.366;8.172;2023-02-23T10:32:06;18.50;57.00
28297;DHT22;62078;49.366;8.172;2023-02-23T10:34:37;18.50;57.10
28297;DHT22;62078;49.366;8.172;2023-02-23T10:37:05;18.50;57.10
28297;DHT22;62078;49.366;8.172;2023-02-23T10:39:31;18.40;57.00
28297;DHT22;62078;49.366;8.172;2023-02-23T10:42:01;18.50;57.10
28297;DHT22;62078;49.366;8.172;2023-02-23T10:44:28;18.50;57.10
28297;DHT22;62078;49.366;8.172;2023-02-23T10:49:28;18.40;57.00
28297;DHT22;62078;49.366;8.172;2023-02-23T10:51:57;18.40;57.00
28297;DHT22;62078;49.366;8.172;2023-02-23T10:54:34;18.40;57.00
28297;DHT22;62078;49.366;8.172;2023-02-23T10:57:00;18.40;57.00
28297;DHT22;62078;49.366;8.172;2023-02-23T10:59:27;18.40;56.80
28297;DHT22;62078;49.366;8.172;2023-02-23T11:01:53;18.40;56.80
28297;DHT22;62078;49.366;8.172;2023-02-23T11:04:29;18.40;57.50
28297;DHT22;62078;49.366;8.172;2023-02-23T11:07:25;18.40;56.80
28297;DHT22;62078;49.366;8.172;2023-02-23T11:09:54;18.40;56.80
28297;DHT22;62078;49.366;8.172;2023-02-23T11:12:38;18.30;56.80
28297;DHT22;62078;49.366;8.172;2023-02-23T11:18:04;18.30;56.70
28297;DHT22;62078;49.366;8.172;2023-02-23T11:20:38;18.30;56.70
28297;DHT22;62078;49.366;8.172;2023-02-23T11:23:35;18.30;56.60
28297;DHT22;62078;49.366;8.172;2023-02-23T11:26:15;18.30;56.60
28297;DHT22;62078;49.366;8.172;2023-02-23T11:28:51;18.30;56.70
28297;DHT22;62078;49.366;8.172;2023-02-23T11:31:31;18.30;56.80
28297;DHT22;62078;49.366;8.172;2023-02-23T11:34:01;18.20;56.70
28297;DHT22;62078;49.366;8.172;2023-02-23T11:36:30;18.30;56.70
28297;DHT22;62078;49.366;8.172;2023-02-23T11:41:39;18.30;56.70
28297;DHT22;62078;49.366;8.172;2023-02-23T11:44:04;18.30;56.70
28297;DHT22;62078;49.366;8.172;2023-02-23T11:46:34;18.30;56.80
28297;DHT22;62078;49.366;8.172;2023-02-23T11:51:32;18.30;56.90
28297;DHT22;62078;49.366;8.172;2023-02-23T11:53:59;18.30;56.90
28297;DHT22;62078;49.366;8.172;2023-02-23T11:56:27;18.20;56.90
28297;DHT22;62078;49.366;8.172;2023-02-23T12:04:00;18.20;56.90
28297;DHT22;62078;49.366;8.172;2023-02-23T12:06:38;18.20;57.10
28297;DHT22;62078;49.366;8.172;2023-02-23T12:09:16;18.20;57.10
28297;DHT22;62078;49.366;8.172;2023-02-23T12:11:48;18.20;57.00
28297;DHT22;62078;49.366;8.172;2023-02-23T12:17:24;18.20;57.10
28297;DHT22;62078;49.366;8.172;2023-02-23T12:22:49;18.20;57.10
28297;DHT22;62078;49.366;8.172;2023-02-23T12:25:34;18.10;57.10
28297;DHT22;62078;49.366;8.172;2023-02-23T12:33:46;18.10;57.10
28297;DHT22;62078;49.366;8.172;2023-02-23T12:39:17;18.00;56.00
28297;DHT22;62078;49.366;8.172;2023-02-23T12:41:59;17.80;56.50
28297;DHT22;62078;49.366;8.172;2023-02-23T12:44:43;17.60;56.70
28297;DHT22;62078;49.366;8.172;2023-02-23T12:47:49;17.40;57.20
28297;DHT22;62078;49.366;8.172;2023-02-23T12:50:24;17.30;57.20
28297;DHT22;62078;49.366;8.172;2023-02-23T12:53:03;17.20;57.10
28297;DHT22;62078;49.366;8.172;2023-02-23T12:58:45;17.10;57.30
28297;DHT22;62078;49.366;8.172;2023-02-23T13:06:56;16.90;57.40
28297;DHT22;62078;49.366;8.172;2023-02-23T13:17:57;16.90;57.60
28297;DHT22;62078;49.366;8.172;2023-02-23T13:20:31;16.80;57.40
28297;DHT22;62078;49.366;8.172;2023-02-23T13:23:35;16.80;57.60
28297;DHT22;62078;49.366;8.172;2023-02-23T13:29:55;16.70;57.90
28297;DHT22;62078;49.366;8.172;2023-02-23T13:34:56;16.70;57.90
28297;DHT22;62078;49.366;8.172;2023-02-23T13:42:42;16.60;58.10
28297;DHT22;62078;49.366;8.172;2023-02-23T13:50:56;16.50;58.40
28297;DHT22;62078;49.366;8.172;2023-02-23T13:53:42;16.50;58.60
28297;DHT22;62078;49.366;8.172;2023-02-23T13:56:15;16.50;58.60
28297;DHT22;62078;49.366;8.172;2023-02-23T13:58:47;16.50;58.50
28297;DHT22;62078;49.366;8.172;2023-02-23T14:01:19;16.40;58.50
28297;DHT22;62078;49.366;8.172;2023-02-23T14:03:56;16.40;58.50
28297;DHT22;62078;49.366;8.172;2023-02-23T14:06:25;16.40;58.60
28297;DHT22;62078;49.366;8.172;2023-02-23T14:08:58;16.40;58.70
28297;DHT22;62078;49.366;8.172;2023-02-23T14:11:43;16.40;58.70
28297;DHT22;62078;49.366;8.172;2023-02-23T14:14:13;16.40;59.00
28297;DHT22;62078;49.366;8.172;2023-02-23T14:16:41;16.40;59.10
28297;DHT22;62078;49.366;8.172;2023-02-23T14:19:40;16.40;59.50
28297;DHT22;62078;49.366;8.172;2023-02-23T14:22:14;16.30;59.60
28297;DHT22;62078;49.366;8.172;2023-02-23T14:24:42;16.30;59.10
28297;DHT22;62078;49.366;8.172;2023-02-23T14:27:43;16.30;58.80
28297;DHT22;62078;49.366;8.172;2023-02-23T14:32:42;16.20;59.00
28297;DHT22;62078;49.366;8.172;2023-02-23T14:37:59;16.30;58.90
28297;DHT22;62078;49.366;8.172;2023-02-23T14:40:36;16.30;58.90
28297;DHT22;62078;49.366;8.172;2023-02-23T14:43:30;16.20;59.00
28297;DHT22;62078;49.366;8.172;2023-02-23T14:45:57;16.20;59.00
28297;DHT22;62078;49.366;8.172;2023-02-23T14:48:23;16.20;59.00
28297;DHT22;62078;49.366;8.172;2023-02-23T14:50:50;16.20;59.00
28297;DHT22;62078;49.366;8.172;2023-02-23T14:53:21;16.20;59.10
28297;DHT22;62078;49.366;8.172;2023-02-23T14:55:48;16.20;59.00
28297;DHT22;62078;49.366;8.172;2023-02-23T14:58:22;16.20;59.20
28297;DHT22;62078;49.366;8.172;2023-02-23T15:00:48;16.20;59.20
28297;DHT22;62078;49.366;8.172;2023-02-23T15:03:16;16.20;59.20
28297;DHT22;62078;49.366;8.172;2023-02-23T15:05:53;16.10;59.30
28297;DHT22;62078;49.366;8.172;2023-02-23T15:08:25;16.10;59.70
28297;DHT22;62078;49.366;8.172;2023-02-23T15:11:09;16.10;59.10
28297;DHT22;62078;49.366;8.172;2023-02-23T15:13:46;16.10;59.30
28297;DHT22;62078;49.366;8.172;2023-02-23T15:16:15;16.10;59.20
28297;DHT22;62078;49.366;8.172;2023-02-23T15:18:43;16.10;59.00
28297;DHT22;62078;49.366;8.172;2023-02-23T15:21:18;16.10;59.30
28297;DHT22;62078;49.366;8.172;2023-02-23T15:23:49;16.20;59.40
28297;DHT22;62078;49.366;8.172;2023-02-23T15:26:29;16.30;59.10
28297;DHT22;62078;49.366;8.172;2023-02-23T15:29:23;16.40;59.10
28297;DHT22;62078;49.366;8.172;2023-02-23T15:31:52;16.50;59.00
28297;DHT22;62078;49.366;8.172;2023-02-23T15:34:25;16.50;58.80
28297;DHT22;62078;49.366;8.172;2023-02-23T15:37:01;16.60;59.00
28297;DHT22;62078;49.366;8.172;2023-02-23T15:39:40;16.70;58.70
28297;DHT22;62078;49.366;8.172;2023-02-23T15:42:13;16.70;58.60
28297;DHT22;62078;49.366;8.172;2023-02-23T15:44:40;16.70;58.50
28297;DHT22;62078;49.366;8.172;2023-02-23T15:47:19;16.80;58.50
28297;DHT22;62078;49.366;8.172;2023-02-23T15:49:45;16.80;58.40
28297;DHT22;62078;49.366;8.172;2023-02-23T15:52:18;16.80;58.40
28297;DHT22;62078;49.366;8.172;2023-02-23T15:54:58;16.80;58.40
28297;DHT22;62078;49.366;8.172;2023-02-23T15:57:31;16.80;58.30
28297;DHT22;62078;49.366;8.172;2023-02-23T16:00:00;16.80;58.30
28297;DHT22;62078;49.366;8.172;2023-02-23T16:02:29;16.80;58.30
28297;DHT22;62078;49.366;8.172;2023-02-23T16:04:54;16.80;58.20
28297;DHT22;62078;49.366;8.172;2023-02-23T16:07:25;16.80;58.20
28297;DHT22;62078;49.366;8.172;2023-02-23T16:09:54;16.80;58.20
28297;DHT22;62078;49.366;8.172;2023-02-23T16:12:23;16.80;58.20
28297;DHT22;62078;49.366;8.172;2023-02-23T16:14:59;16.80;58.20
28297;DHT22;62078;49.366;8.172;2023-02-23T16:17:45;16.90;58.20
28297;DHT22;62078;49.366;8.172;2023-02-23T16:23:00;16.90;58.20
28297;DHT22;62078;49.366;8.172;2023-02-23T16:25:28;16.90;58.10
28297;DHT22;62078;49.366;8.172;2023-02-23T16:28:00;16.90;58.20
28297;DHT22;62078;49.366;8.172;2023-02-23T16:33:13;16.90;58.10
28297;DHT22;62078;49.366;8.172;2023-02-23T16:35:46;16.80;58.10
28297;DHT22;62078;49.366;8.172;2023-02-23T16:40:50;17.00;58.20
28297;DHT22;62078;49.366;8.172;2023-02-23T16:43:16;17.00;58.50
28297;DHT22;62078;49.366;8.172;2023-02-23T16:45:42;17.00;58.80
28297;DHT22;62078;49.366;8.172;2023-02-23T16:48:13;17.00;59.10
28297;DHT22;62078;49.366;8.172;2023-02-23T16:50:39;17.00;59.30
28297;DHT22;62078;49.366;8.172;2023-02-23T16:53:05;17.00;59.40
28297;DHT22;62078;49.366;8.172;2023-02-23T16:55:39;17.00;59.30
28297;DHT22;62078;49.366;8.172;2023-02-23T16:58:17;17.00;59.40
28297;DHT22;62078;49.366;8.172;2023-02-23T17:00:44;17.00;59.40
28297;DHT22;62078;49.366;8.172;2023-02-23T17:03:21;17.00;59.40
28297;DHT22;62078;49.366;8.172;2023-02-23T17:05:47;17.10;59.40
28297;DHT22;62078;49.366;8.172;2023-02-23T17:08:13;17.10;59.30
28297;DHT22;62078;49.366;8.172;2023-02-23T17:10:40;17.10;59.20
28297;DHT22;62078;49.366;8.172;2023-02-23T17:13:12;17.10;59.30
28297;DHT22;62078;49.366;8.172;2023-02-23T17:15:41;17.10;59.30
28297;DHT22;62078;49.366;8.172;2023-02-23T17:18:13;17.20;59.20
28297;DHT22;62078;49.366;8.172;2023-02-23T17:20:39;17.20;59.10
28297;DHT22;62078;49.366;8.172;2023-02-23T17:23:04;17.20;59.30
28297;DHT22;62078;49.366;8.172;2023-02-23T17:25:31;17.20;59.20
28297;DHT22;62078;49.366;8.172;2023-02-23T17:27:57;17.20;59.30
28297;DHT22;62078;49.366;8.172;2023-02-23T17:30:23;17.20;59.40
28297;DHT22;62078;49.366;8.172;2023-02-23T17:32:54;17.30;59.20
28297;DHT22;62078;49.366;8.172;2023-02-23T17:35:20;17.30;59.20
28297;DHT22;62078;49.366;8.172;2023-02-23T17:37:46;17.30;59.00
28297;DHT22;62078;49.366;8.172;2023-02-23T17:40:15;17.30;59.10
28297;DHT22;62078;49.366;8.172;2023-02-23T17:42:42;17.30;59.10
28297;DHT22;62078;49.366;8.172;2023-02-23T17:45:08;17.30;59.00
28297;DHT22;62078;49.366;8.172;2023-02-23T17:47:35;17.30;58.90
28297;DHT22;62078;49.366;8.172;2023-02-23T17:50:02;17.40;59.00
28297;DHT22;62078;49.366;8.172;2023-02-23T17:52:28;17.40;58.80
28297;DHT22;62078;49.366;8.172;2023-02-23T17:54:54;17.40;58.70
28297;DHT22;62078;49.366;8.172;2023-02-23T17:57:23;17.40;58.70
28297;DHT22;62078;49.366;8.172;2023-02-23T17:59:50;17.40;58.60
28297;DHT22;62078;49.366;8.172;2023-02-23T18:02:18;17.50;58.60
28297;DHT22;62078;49.366;8.172;2023-02-23T18:04:46;17.50;58.60
28297;DHT22;62078;49.366;8.172;2023-02-23T18:07:12;17.50;58.50
28297;DHT22;62078;49.366;8.172;2023-02-23T18:09:38;17.50;58.40
28297;DHT22;62078;49.366;8.172;2023-02-23T18:12:05;17.50;58.40
28297;DHT22;62078;49.366;8.172;2023-02-23T18:14:30;17.50;58.50
28297;DHT22;62078;49.366;8.172;2023-02-23T18:16:56;17.50;58.40
28297;DHT22;62078;49.366;8.172;2023-02-23T18:19:23;17.60;58.40
28297;DHT22;62078;49.366;8.172;2023-02-23T18:21:49;17.60;58.30
28297;DHT22;62078;49.366;8.172;2023-02-23T18:24:15;17.60;58.30
28297;DHT22;62078;49.366;8.172;2023-02-23T18:26:41;17.60;58.20
28297;DHT22;62078;49.366;8.172;2023-02-23T18:29:06;17.60;58.30
28297;DHT22;62078;49.366;8.172;2023-02-23T18:31:33;17.60;58.20
